createdAt,value
2023-02-28T04:09:20.774Z,4.02
2023-02-28T08:26:16.982Z,1.87
2023-02-28T08:27:16.990Z,1.76
2023-02-28T08:28:16.993Z,1.70
2023-02-28T08:29:16.958Z,1.43
2023-02-28T08:30:16.956Z,1.01
2023-02-28T08:31:16.957Z,1.04
2023-02-28T08:32:28.842Z,1.06
2023-02-28T08:33:17.923Z,0.85
2023-02-28T08:34:16.928Z,0.69
2023-02-28T08:35:16.910Z,0.46
2023-02-28T08:36:16.935Z,0.54
2023-02-28T08:37:16.892Z,0.71
2023-02-28T08:38:16.913Z,1.04
2023-02-28T08:39:16.877Z,1.30
2023-02-28T08:40:16.885Z,1.67
2023-02-28T08:41:16.837Z,1.80
2023-02-28T08:42:16.998Z,1.07
2023-02-28T08:43:16.778Z,0.90
2023-02-28T08:44:16.811Z,0.51
2023-02-28T08:45:16.741Z,0.40
2023-02-28T08:46:16.861Z,0.45
2023-02-28T08:47:16.750Z,0.43
2023-02-28T08:48:19.293Z,0.45
2023-02-28T08:49:16.687Z,0.55
2023-02-28T08:50:16.682Z,0.49
2023-02-28T08:51:16.675Z,0.51
2023-02-28T08:52:16.679Z,0.59
2023-02-28T08:53:16.682Z,0.66
2023-02-28T08:54:16.651Z,0.52
2023-02-28T08:55:16.684Z,0.55
2023-02-28T08:56:16.696Z,0.61
2023-02-28T08:57:16.639Z,0.64
2023-02-28T08:58:16.619Z,0.64
2023-02-28T08:59:16.619Z,0.64
2023-02-28T09:00:16.603Z,0.48
2023-02-28T09:01:16.612Z,0.38
2023-02-28T09:02:16.590Z,0.49
2023-02-28T09:03:16.564Z,0.52
2023-02-28T09:04:18.607Z,0.59
2023-02-28T09:05:16.560Z,0.55
2023-02-28T09:06:16.575Z,0.43
2023-02-28T09:07:16.528Z,0.49
2023-02-28T09:08:16.543Z,0.53
2023-02-28T09:09:16.502Z,0.49
2023-02-28T09:10:16.507Z,0.47
2023-02-28T09:11:16.471Z,0.49
2023-02-28T09:12:16.478Z,0.49
2023-02-28T09:13:16.455Z,0.64
2023-02-28T09:14:16.446Z,0.64
2023-02-28T09:15:16.439Z,0.61
2023-02-28T09:16:16.434Z,0.60
2023-02-28T09:17:16.406Z,0.41
2023-02-28T09:18:16.413Z,0.50
2023-02-28T09:19:16.406Z,0.61
2023-02-28T09:20:16.381Z,0.64
2023-02-28T09:21:16.381Z,0.60
2023-02-28T09:22:16.353Z,0.55
2023-02-28T09:23:16.356Z,0.43
2023-02-28T09:24:16.364Z,0.55
2023-02-28T09:25:16.328Z,0.58
2023-02-28T09:26:16.330Z,0.52
2023-02-28T09:27:16.323Z,0.54
2023-02-28T09:28:16.304Z,0.42
2023-02-28T09:29:16.298Z,0.57
2023-02-28T09:30:16.298Z,0.55
2023-02-28T09:31:16.462Z,0.76
2023-02-28T09:32:16.333Z,1.10
2023-02-28T09:33:16.276Z,1.75
2023-02-28T09:34:16.283Z,2.77
2023-02-28T09:35:16.246Z,3.65
2023-02-28T09:36:16.326Z,4.38
2023-02-28T09:37:16.246Z,5.37
2023-02-28T09:38:16.207Z,6.66
2023-02-28T09:39:16.233Z,7.87
2023-02-28T09:40:16.184Z,8.94
2023-02-28T09:41:16.138Z,9.95
2023-02-28T09:42:16.125Z,10.53
2023-02-28T09:43:16.108Z,11.44
2023-02-28T09:44:16.091Z,12.25
2023-02-28T09:45:16.060Z,12.98
2023-02-28T09:46:16.125Z,14.07
2023-02-28T09:47:16.001Z,14.77
2023-02-28T09:48:15.986Z,14.90
2023-02-28T09:49:15.955Z,15.51
2023-02-28T09:50:15.915Z,16.67
2023-02-28T09:51:15.883Z,18.10
2023-02-28T09:52:15.871Z,19.35
2023-02-28T09:53:15.820Z,20.92
2023-02-28T09:54:15.852Z,22.10
2023-02-28T09:55:15.755Z,22.58
2023-02-28T09:56:15.725Z,23.03
2023-02-28T09:57:15.690Z,24.46
2023-02-28T09:58:15.656Z,28.61
2023-02-28T09:59:15.628Z,30.23
2023-02-28T10:00:17.516Z,30.25
2023-02-28T10:01:15.705Z,33.59
2023-02-28T10:02:15.640Z,34.98
2023-02-28T10:03:15.600Z,35.47
2023-02-28T10:04:15.598Z,38.56
2023-02-28T10:05:15.546Z,39.96
2023-02-28T10:06:15.479Z,39.28
2023-02-28T10:07:15.453Z,41.62
2023-02-28T10:08:15.403Z,43.94
2023-02-28T10:09:15.418Z,46.37
2023-02-28T10:10:15.354Z,46.91
2023-02-28T10:11:15.309Z,47.01
2023-02-28T10:12:15.245Z,47.53
2023-02-28T10:14:15.168Z,50.82
2023-02-28T10:15:15.103Z,51.95
2023-02-28T10:16:15.146Z,49.76
2023-02-28T10:17:15.010Z,52.55
2023-02-28T10:18:14.970Z,52.73
2023-02-28T10:19:14.908Z,54.13
2023-02-28T10:20:14.873Z,57.62
2023-02-28T10:21:14.807Z,62.67
2023-02-28T10:22:14.777Z,69.57
2023-02-28T10:23:14.710Z,69.11
2023-02-28T10:24:14.684Z,68.73
2023-02-28T10:25:14.605Z,65.32
2023-02-28T10:26:14.587Z,65.60
2023-02-28T10:27:14.516Z,63.41
2023-02-28T10:28:14.464Z,61.65
2023-02-28T10:29:14.438Z,62.60
2023-02-28T10:30:14.375Z,61.46
2023-02-28T10:31:14.367Z,59.73
2023-02-28T10:32:14.296Z,54.13
2023-02-28T10:33:14.305Z,53.49
2023-02-28T10:34:14.158Z,50.42
2023-02-28T10:35:14.105Z,47.62
2023-02-28T10:36:14.302Z,43.56
2023-02-28T10:37:14.022Z,42.35
2023-02-28T10:38:13.950Z,42.57
2023-02-28T10:39:13.914Z,41.39
2023-02-28T10:40:13.846Z,40.08
2023-02-28T10:41:13.815Z,38.72
2023-02-28T10:42:13.757Z,38.71
2023-02-28T10:43:13.843Z,35.67
2023-02-28T12:58:07.433Z,19.85
2023-02-28T12:59:07.403Z,20.56
2023-02-28T13:00:07.366Z,19.96
2023-02-28T13:01:07.390Z,20.28
2023-02-28T13:02:07.322Z,19.42
2023-02-28T13:03:07.275Z,19.22
2023-02-28T13:04:07.234Z,19.13
2023-02-28T13:05:07.175Z,19.38
2023-02-28T13:06:07.147Z,18.44
2023-02-28T13:07:07.091Z,18.81
2023-02-28T13:08:07.060Z,18.01
2023-02-28T13:09:07.022Z,18.35
2023-02-28T13:10:06.978Z,18.38
2023-02-28T13:11:13.128Z,18.67
2023-02-28T13:14:06.830Z,18.11
2023-02-28T13:15:06.791Z,17.55
2023-02-28T13:16:06.770Z,17.71
2023-02-28T13:17:06.757Z,18.25
2023-02-28T13:18:06.661Z,17.63
2023-02-28T13:19:06.616Z,17.42
2023-02-28T13:20:06.577Z,17.42
2023-02-28T13:21:06.544Z,17.71
2023-02-28T13:22:06.505Z,17.62
2023-02-28T13:23:06.491Z,17.36
2023-02-28T13:24:06.419Z,17.79
2023-02-28T13:25:06.389Z,17.27
2023-02-28T13:26:06.344Z,16.87
2023-02-28T13:27:06.973Z,16.88
2023-02-28T13:28:06.277Z,17.05
2023-02-28T13:29:06.249Z,16.78
2023-02-28T13:30:06.202Z,16.66
2023-02-28T13:31:06.237Z,16.44
2023-02-28T13:32:06.151Z,16.34
2023-02-28T13:34:06.078Z,16.12
2023-02-28T13:35:06.026Z,15.95
2023-02-28T13:36:05.986Z,15.47
2023-02-28T13:37:05.954Z,15.22
2023-02-28T13:38:05.919Z,15.16
2023-02-28T13:39:05.872Z,14.50
2023-02-28T13:40:05.834Z,14.63
2023-02-28T13:41:05.805Z,14.64
2023-02-28T13:42:05.757Z,14.69
2023-02-28T13:43:05.714Z,14.73
2023-02-28T13:44:05.688Z,14.68
2023-02-28T13:45:05.650Z,14.83
2023-02-28T13:46:05.658Z,14.08
2023-02-28T13:47:05.572Z,13.99
2023-02-28T13:48:05.535Z,13.79
2023-02-28T13:49:05.499Z,13.62
2023-02-28T13:50:05.459Z,13.64
2023-02-28T13:52:05.378Z,13.31
2023-02-28T13:53:05.349Z,13.54
2023-02-28T13:54:05.299Z,13.18
2023-02-28T13:55:05.273Z,13.24
2023-02-28T13:56:05.212Z,13.51
2023-02-28T14:30:03.793Z,10.39
2023-02-28T14:31:03.880Z,10.39
2023-02-28T14:32:03.733Z,10.42
2023-02-28T18:40:55.140Z,5.38
2023-02-28T18:48:54.950Z,5.21
2023-02-28T18:49:54.930Z,5.38
2023-02-28T18:50:54.898Z,5.18
2023-02-28T18:51:54.878Z,5.15
2023-02-28T18:52:54.846Z,5.12
2023-02-28T18:53:54.830Z,5.14
2023-02-28T18:54:54.800Z,5.19
2023-02-28T18:55:54.775Z,5.23
2023-02-28T18:56:54.755Z,5.19
2023-02-28T18:57:54.765Z,5.23
2023-02-28T18:58:54.710Z,5.08
2023-02-28T18:59:54.708Z,5.13
2023-02-28T19:00:54.695Z,5.05
2023-02-28T19:01:54.629Z,5.05
2023-02-28T19:02:54.619Z,5.11
2023-02-28T19:03:54.607Z,5.18
2023-02-28T19:04:54.569Z,5.06
2023-02-28T19:05:54.530Z,5.05
2023-02-28T19:06:54.513Z,5.04
2023-02-28T19:07:54.475Z,5.01
2023-02-28T19:08:54.453Z,4.92
2023-02-28T19:09:54.436Z,5.04
2023-02-28T19:10:54.402Z,5.00
2023-02-28T19:11:54.382Z,4.96
2023-02-28T19:12:54.357Z,4.97
2023-02-28T19:13:54.337Z,4.98
2023-02-28T19:14:54.322Z,4.99
2023-02-28T19:15:57.224Z,5.04
2023-02-28T19:16:54.400Z,5.14
2023-02-28T19:17:54.235Z,5.02
2023-02-28T19:18:54.221Z,5.00
2023-02-28T19:19:54.190Z,5.02
2023-02-28T19:20:54.177Z,4.95
2023-02-28T19:21:55.575Z,4.98
2023-02-28T19:22:54.100Z,4.98
2023-02-28T19:23:54.069Z,4.96
2023-02-28T19:24:54.034Z,4.99
2023-02-28T19:25:54.016Z,4.93
2023-02-28T19:26:53.984Z,4.96
2023-02-28T19:27:53.962Z,4.98
2023-02-28T19:28:53.939Z,4.88
2023-02-28T19:29:53.920Z,4.92
2023-02-28T19:30:53.890Z,4.86
2023-02-28T19:31:53.953Z,4.85
2023-02-28T19:32:53.877Z,4.94
2023-02-28T19:33:53.822Z,4.90
2023-02-28T19:34:53.787Z,4.79
2023-02-28T19:35:53.845Z,4.82
2023-02-28T19:36:53.740Z,4.87
2023-02-28T19:37:53.712Z,4.88
2023-02-28T19:38:53.694Z,4.84
2023-02-28T19:39:53.674Z,4.85
